Time;durP1;ratioP1;P1;durP2;ratioP2;P2;SDS_P1;SDS_P2;PMS_P1;PMS_P2;Temp;Humidity;BMP_temperature;BMP_pressure;BME280_temperature;BME280_humidity;BME280_pressure;Samples;Min_cycle;Max_cycle;Signal;HPM_P1;HPM_P2
2023/05/03 00:00:18;;;;;;;5.93;3.80;;;;;;;11.92;75.86;99504.97;4997861;27;102771;-63
2023/05/03 00:02:46;;;;;;;5.70;3.43;;;;;;;11.96;75.80;99504.66;5002502;27;103890;-63
2023/05/03 00:05:16;;;;;;;3.20;2.63;;;;;;;12.05;75.55;99509.38;5004045;27;103134;-63
2023/05/03 00:07:45;;;;;;;4.77;4.23;;;;;;;12.06;75.30;99508.44;5007840;27;102685;-63
2023/05/03 00:10:14;;;;;;;3.50;3.13;;;;;;;12.08;75.27;99511.81;5000534;27;103329;-63
2023/05/03 00:12:44;;;;;;;4.17;3.33;;;;;;;12.09;75.54;99516.19;4997048;27;112257;-62
2023/05/03 00:15:12;;;;;;;4.13;3.77;;;;;;;11.76;77.25;99514.88;4994505;27;103282;-63
2023/05/03 00:17:40;;;;;;;5.43;4.03;;;;;;;11.54;77.95;99515.34;5002715;27;102832;-63
2023/05/03 00:20:08;;;;;;;3.73;3.43;;;;;;;11.38;78.84;99511.97;5002217;27;102794;-63
2023/05/03 00:22:40;;;;;;;3.83;3.53;;;;;;;11.38;78.81;99511.97;4999361;27;104467;-63
2023/05/03 00:25:09;;;;;;;5.33;3.50;;;;;;;11.24;79.52;99515.47;4995152;27;103286;-63
2023/05/03 00:27:37;;;;;;;4.20;3.80;;;;;;;11.30;78.68;99514.25;4999535;27;102927;-63
2023/05/03 00:30:06;;;;;;;4.87;4.37;;;;;;;11.58;77.78;99520.34;4996782;27;102797;-63
2023/05/03 00:32:34;;;;;;;3.90;3.47;;;;;;;11.60;78.11;99513.16;5012865;27;104610;-63
2023/05/03 00:35:03;;;;;;;4.97;4.00;;;;;;;11.77;76.85;99506.81;4996536;27;103534;-63
2023/05/03 00:37:32;;;;;;;4.50;4.10;;;;;;;11.74;78.01;99514.09;4999436;27;102791;-63
2023/05/03 00:40:02;;;;;;;4.27;3.77;;;;;;;11.76;77.59;99507.75;4994549;27;102826;-63
2023/05/03 00:42:34;;;;;;;3.50;3.20;;;;;;;11.82;77.80;99510.00;5001084;27;103484;-63
2023/05/03 00:45:03;;;;;;;3.70;3.20;;;;;;;11.94;76.62;99511.88;4992713;27;111628;-63
2023/05/03 00:47:32;;;;;;;3.20;2.90;;;;;;;11.97;76.37;99497.59;4995463;27;102804;-62
2023/05/03 00:50:01;;;;;;;4.33;3.93;;;;;;;11.83;77.30;99503.78;4993561;27;102892;-61
2023/05/03 00:52:30;;;;;;;4.77;4.10;;;;;;;11.60;78.82;99501.72;4997614;27;103353;-62
2023/05/03 00:55:01;;;;;;;6.40;4.13;;;;;;;11.38;80.34;99496.09;4995876;27;106319;-62
2023/05/03 00:57:30;;;;;;;4.50;4.10;;;;;;;11.55;79.25;99493.22;5006369;27;102772;-62
2023/05/03 00:59:58;;;;;;;4.37;3.97;;;;;;;11.68;78.14;99494.13;5002889;27;102868;-62
2023/05/03 01:02:26;;;;;;;6.73;4.27;;;;;;;11.42;79.70;99497.63;4995941;27;103250;-63
2023/05/03 01:04:55;;;;;;;6.63;4.00;;;;;;;11.11;81.30;99498.69;5000450;27;108424;-63
2023/05/03 01:07:33;;;;;;;4.37;3.97;;;;;;;11.27;80.77;99495.91;4976137;27;102898;-62
2023/05/03 01:10:15;;;;;;;5.20;3.87;;;;;;;11.26;80.59;99499.50;4975914;27;102873;-63
2023/05/03 01:12:51;;;;;;;4.60;3.97;;;;;;;11.39;79.47;99495.16;4997294;27;108473;-62
2023/05/03 01:15:32;;;;;;;4.10;3.70;;;;;;;11.47;78.94;99500.81;4996099;27;103509;-62
2023/05/03 01:18:06;;;;;;;4.77;3.17;;;;;;;11.54;78.18;99502.09;4996937;27;103188;-62
2023/05/03 01:20:36;;;;;;;4.60;4.07;;;;;;;11.46;77.87;99491.16;4995590;27;104389;-63
2023/05/03 01:23:11;;;;;;;6.07;4.73;;;;;;;11.00;80.17;99488.75;4999042;27;103782;-60
2023/05/03 01:25:41;;;;;;;5.67;3.93;;;;;;;11.05;80.81;99486.69;4999620;27;103131;-60
2023/05/03 01:28:08;;;;;;;7.03;4.47;;;;;;;11.19;79.62;99491.13;4994567;27;102771;-60
2023/05/03 01:30:40;;;;;;;5.00;4.47;;;;;;;11.18;79.54;99480.63;5000758;27;103034;-60
2023/05/03 01:33:14;;;;;;;5.67;4.70;;;;;;;10.92;80.37;99480.44;4997518;27;103244;-60
2023/05/03 01:35:50;;;;;;;4.53;4.13;;;;;;;10.71;81.46;99483.53;4998699;27;103161;-60
2023/05/03 01:38:18;;;;;;;4.43;4.03;;;;;;;10.77;81.56;99484.03;4999528;27;102870;-60
2023/05/03 01:40:51;;;;;;;5.17;4.23;;;;;;;10.86;81.24;99472.88;4999064;27;103616;-60
2023/05/03 01:43:21;;;;;;;4.47;4.07;;;;;;;10.60;82.90;99475.41;4994341;27;103610;-60
2023/05/03 01:45:49;;;;;;;6.13;5.00;;;;;;;10.80;82.12;99473.28;4995252;27;103215;-61
2023/05/03 01:48:19;;;;;;;5.60;5.00;;;;;;;10.92;81.25;99475.16;4997109;27;102707;-59
2023/05/03 01:50:47;;;;;;;6.33;5.10;;;;;;;10.95;80.28;99472.31;4999322;27;103308;-59
2023/05/03 01:53:15;;;;;;;4.07;3.67;;;;;;;10.87;81.79;99469.28;4996788;27;104499;-59
2023/05/03 01:55:43;;;;;;;6.77;5.17;;;;;;;10.90;80.40;99466.47;4996154;27;104210;-60
2023/05/03 01:58:13;;;;;;;6.03;4.40;;;;;;;10.75;81.50;99467.41;5000356;27;103084;-60
2023/05/03 02:00:41;;;;;;;6.30;4.93;;;;;;;10.76;81.63;99471.75;4998218;27;102735;-60
2023/05/03 02:03:09;;;;;;;6.07;4.70;;;;;;;10.87;81.02;99474.59;4994902;27;103354;-60
2023/05/03 02:05:37;;;;;;;5.17;4.20;;;;;;;10.93;80.52;99470.72;4998231;27;104291;-59
2023/05/03 02:08:05;;;;;;;6.17;4.40;;;;;;;10.89;81.03;99472.69;4994826;27;102831;-60
2023/05/03 02:10:35;;;;;;;5.93;4.67;;;;;;;10.90;80.67;99476.19;4998217;27;103299;-59
2023/05/03 02:13:03;;;;;;;5.80;4.23;;;;;;;10.96;80.57;99481.09;4999431;27;108812;-59
2023/05/03 02:15:32;;;;;;;5.10;4.27;;;;;;;10.98;80.20;99480.06;4996772;27;104476;-59
2023/05/03 02:18:01;;;;;;;4.80;4.03;;;;;;;10.95;80.07;99480.25;4999533;27;102683;-60
2023/05/03 02:20:34;;;;;;;6.07;5.47;;;;;;;10.81;80.15;99474.97;4995329;27;103958;-59
2023/05/03 02:23:02;;;;;;;6.27;5.23;;;;;;;10.57;81.73;99476.44;4998542;27;103298;-59
2023/05/03 02:25:30;;;;;;;7.23;5.53;;;;;;;10.57;81.68;99481.75;5008910;27;103278;-59
2023/05/03 02:27:58;;;;;;;6.63;4.90;;;;;;;10.69;80.90;99486.28;4998843;27;103166;-59
2023/05/03 02:30:26;;;;;;;6.60;5.60;;;;;;;10.75;80.32;99477.13;5021616;27;102722;-59
2023/05/03 02:32:56;;;;;;;6.80;4.93;;;;;;;10.76;79.83;99477.03;5000399;27;109504;-59
2023/05/03 02:35:25;;;;;;;6.37;5.77;;;;;;;10.14;82.68;99472.84;5004684;27;104296;-59
2023/05/03 02:37:52;;;;;;;6.57;5.97;;;;;;;10.00;84.66;99471.91;5008639;27;102753;-59
2023/05/03 02:40:20;;;;;;;5.73;4.63;;;;;;;10.15;84.35;99474.56;5007276;27;104235;-59
2023/05/03 02:42:48;;;;;;;6.13;4.70;;;;;;;10.34;82.85;99479.59;4996837;27;103416;-59
2023/05/03 02:45:23;;;;;;;6.47;5.87;;;;;;;10.35;82.32;99470.75;4999294;27;103823;-59
2023/05/03 02:47:51;;;;;;;6.77;5.43;;;;;;;10.39;81.57;99472.25;4996556;27;102751;-60
2023/05/03 02:50:24;;;;;;;6.57;5.57;;;;;;;10.40;81.78;99468.69;4997017;27;103233;-60
2023/05/03 02:52:52;;;;;;;5.90;5.40;;;;;;;10.40;81.47;99458.13;4998973;27;103264;-59
2023/05/03 02:55:20;;;;;;;5.57;3.80;;;;;;;10.46;80.89;99463.03;5000999;27;105247;-59
2023/05/03 02:57:48;;;;;;;6.87;5.17;;;;;;;10.42;80.88;99461.50;4994346;27;102880;-59
2023/05/03 03:00:19;;;;;;;5.43;4.83;;;;;;;10.41;81.19;99462.47;5003150;27;102786;-60
2023/05/03 03:02:47;;;;;;;6.33;5.23;;;;;;;10.40;80.79;99464.25;4999095;27;104461;-60
2023/05/03 03:05:16;;;;;;;7.57;5.13;;;;;;;10.28;81.80;99464.13;4999565;27;103325;-60
2023/05/03 03:07:50;;;;;;;5.57;4.93;;;;;;;10.22;81.24;99473.25;4993212;27;102763;-60
2023/05/03 03:10:18;;;;;;;6.00;4.70;;;;;;;10.24;81.13;99473.19;4990978;27;102826;-59
2023/05/03 03:12:46;;;;;;;6.33;4.83;;;;;;;10.30;80.34;99473.63;4992980;28;103398;-60
2023/05/03 03:15:23;;;;;;;7.77;6.43;;;;;;;10.00;81.02;99470.13;4977928;28;104320;-59
2023/05/03 03:17:56;;;;;;;6.90;6.13;;;;;;;9.98;81.95;99472.00;4973947;28;103171;-59
2023/05/03 03:20:25;;;;;;;5.90;5.33;;;;;;;10.01;81.66;99478.91;4983324;28;102770;-60
2023/05/03 03:22:55;;;;;;;6.83;6.13;;;;;;;9.88;80.54;99470.81;4985504;28;103212;-60
2023/05/03 03:25:23;;;;;;;6.87;6.23;;;;;;;9.69;83.37;99486.84;4981242;28;106073;-59
2023/05/03 03:27:52;;;;;;;8.47;6.17;;;;;;;9.57;83.07;99482.25;4984255;28;102673;-60
2023/05/03 03:30:20;;;;;;;6.77;4.70;;;;;;;9.56;84.39;99474.44;4977098;28;102709;-60
2023/05/03 03:32:58;;;;;;;5.23;4.43;;;;;;;9.66;83.32;99480.91;4978353;28;103313;-59
2023/05/03 03:35:33;;;;;;;8.60;7.00;;;;;;;9.71;82.03;99477.06;4979913;28;103528;-60
2023/05/03 03:38:03;;;;;;;7.27;6.30;;;;;;;9.70;82.11;99480.66;4982973;28;102618;-60
2023/05/03 03:40:33;;;;;;;7.57;5.97;;;;;;;9.68;82.33;99487.81;4980384;28;102741;-58
2023/05/03 03:43:00;;;;;;;7.47;6.43;;;;;;;9.88;81.59;99482.25;4963230;28;109116;-58
2023/05/03 03:45:28;;;;;;;6.30;5.70;;;;;;;9.89;81.55;99489.22;4975821;28;104801;-60
2023/05/03 03:47:57;;;;;;;4.77;4.27;;;;;;;9.88;81.12;99487.50;4981277;28;102739;-60
2023/05/03 03:50:26;;;;;;;6.93;6.27;;;;;;;9.50;82.42;99486.19;4978087;28;102762;-59
2023/05/03 03:52:57;;;;;;;5.77;4.53;;;;;;;9.63;82.99;99502.16;4979411;28;103445;-59
2023/05/03 03:55:27;;;;;;;7.37;6.57;;;;;;;9.52;83.17;99505.41;4984148;28;103537;-59
2023/05/03 03:57:57;;;;;;;9.23;6.30;;;;;;;9.45;83.85;99496.16;4982051;28;102708;-59
2023/05/03 04:00:27;;;;;;;7.97;6.27;;;;;;;9.47;83.50;99499.53;4980637;28;102747;-59
2023/05/03 04:03:05;;;;;;;6.63;5.93;;;;;;;9.38;84.53;99502.69;4982978;28;103290;-59
2023/05/03 04:05:35;;;;;;;9.27;6.90;;;;;;;9.35;83.21;99502.84;4982666;28;108421;-60
2023/05/03 04:08:05;;;;;;;6.50;5.67;;;;;;;9.38;83.78;99502.69;4976049;28;103335;-58
2023/05/03 04:10:36;;;;;;;9.60;7.30;;;;;;;9.30;82.94;99504.91;4980642;28;102841;-59
2023/05/03 04:13:04;;;;;;;9.40;7.10;;;;;;;9.12;83.67;99505.91;4979430;28;103614;-59
2023/05/03 04:15:32;;;;;;;9.53;6.87;;;;;;;9.23;84.44;99508.81;4966764;28;104313;-58
2023/05/03 04:18:02;;;;;;;6.33;5.73;;;;;;;9.48;83.21;99519.72;4976747;28;102716;-59
2023/05/03 04:20:31;;;;;;;7.37;6.57;;;;;;;9.67;81.95;99516.91;4984280;28;102916;-58
2023/05/03 04:23:01;;;;;;;9.93;6.70;;;;;;;9.61;81.73;99526.03;4996428;28;104107;-58
2023/05/03 04:25:31;;;;;;;10.07;8.03;;;;;;;9.30;82.88;99526.84;4983621;28;104240;-59
2023/05/03 04:28:09;;;;;;;10.30;7.07;;;;;;;9.33;83.65;99531.09;4977223;28;103141;-64
2023/05/03 04:30:42;;;;;;;10.43;6.67;;;;;;;9.34;84.06;99527.53;4983084;28;102886;-59
2023/05/03 04:33:10;;;;;;;6.33;5.30;;;;;;;9.52;83.76;99530.94;4977334;28;104361;-60
2023/05/03 04:35:39;;;;;;;9.50;7.50;;;;;;;9.50;82.48;99531.03;4979901;28;103182;-59
2023/05/03 04:38:10;;;;;;;10.57;8.00;;;;;;;9.53;84.04;99532.66;4981627;28;102643;-59
2023/05/03 04:40:38;;;;;;;7.40;6.60;;;;;;;9.36;85.72;99527.44;4973115;28;103173;-59
2023/05/03 04:43:10;;;;;;;7.10;6.40;;;;;;;9.55;85.78;99531.63;4967021;28;103544;-60
2023/05/03 04:45:43;;;;;;;9.23;8.00;;;;;;;9.50;84.63;99532.81;4978788;28;104479;-60
2023/05/03 04:48:16;;;;;;;10.03;8.03;;;;;;;9.56;84.35;99533.34;4978047;28;103176;-60
2023/05/03 04:50:45;;;;;;;9.30;7.83;;;;;;;9.63;84.59;99544.38;4978743;28;102753;-59
2023/05/03 04:53:16;;;;;;;9.57;7.67;;;;;;;9.87;83.36;99538.63;4982838;28;103925;-60
2023/05/03 04:55:50;;;;;;;8.10;6.67;;;;;;;10.00;82.82;99533.47;4984204;28;111861;-59
2023/05/03 04:58:19;;;;;;;8.57;7.47;;;;;;;10.10;81.79;99533.81;4982550;28;102625;-60
2023/05/03 05:00:49;;;;;;;7.97;6.83;;;;;;;10.20;81.60;99535.00;4982264;28;102604;-59
2023/05/03 05:03:24;;;;;;;8.27;6.73;;;;;;;10.24;81.03;99537.41;4974238;28;106172;-60
2023/05/03 05:05:53;;;;;;;11.60;7.37;;;;;;;10.26;81.54;99542.59;4980840;28;102956;-60
2023/05/03 05:08:21;;;;;;;9.47;6.77;;;;;;;10.23;81.59;99540.97;4981392;28;102716;-59
2023/05/03 05:10:54;;;;;;;6.70;5.97;;;;;;;10.42;80.97;99536.31;4983157;28;102672;-60
2023/05/03 05:13:27;;;;;;;7.60;6.80;;;;;;;10.48;81.62;99537.75;4977338;28;103229;-60
2023/05/03 05:15:56;;;;;;;8.13;7.33;;;;;;;10.53;81.32;99537.47;4981978;28;104302;-60
2023/05/03 05:18:24;;;;;;;10.27;8.80;;;;;;;10.31;81.03;99537.88;4977505;28;102723;-60
2023/05/03 05:20:53;;;;;;;12.57;8.57;;;;;;;10.38;82.35;99533.97;4978205;28;102687;-60
2023/05/03 05:23:22;;;;;;;10.73;9.30;;;;;;;10.05;83.40;99549.09;4979656;28;103452;-60
2023/05/03 05:25:52;;;;;;;11.90;8.83;;;;;;;9.96;84.21;99545.19;4981439;28;103473;-59
2023/05/03 05:28:21;;;;;;;10.50;8.13;;;;;;;10.19;84.17;99543.91;4982128;28;102616;-60
2023/05/03 05:30:51;;;;;;;12.40;9.57;;;;;;;10.17;83.20;99545.75;4983683;28;102953;-60
2023/05/03 05:33:19;;;;;;;11.43;9.20;;;;;;;9.87;84.47;99554.47;4978619;28;104450;-60
2023/05/03 05:35:49;;;;;;;12.10;9.20;;;;;;;9.78;85.02;99554.09;4980724;28;109622;-60
2023/05/03 05:38:20;;;;;;;11.60;9.60;;;;;;;10.01;84.20;99544.91;4980262;28;102619;-60
2023/05/03 05:40:50;;;;;;;11.63;9.37;;;;;;;10.14;84.88;99545.94;4977882;28;102822;-60
2023/05/03 05:43:19;;;;;;;11.23;9.50;;;;;;;9.93;84.69;99545.34;4981834;28;103328;-60
2023/05/03 05:45:47;;;;;;;12.83;9.13;;;;;;;10.02;85.29;99551.91;4991710;28;104544;-60
2023/05/03 05:48:17;;;;;;;13.47;9.23;;;;;;;10.54;82.91;99547.97;4979074;28;102735;-60
2023/05/03 05:50:46;;;;;;;13.43;9.67;;;;;;;10.65;82.33;99540.25;4978280;28;104098;-60
2023/05/03 05:53:14;;;;;;;12.10;9.97;;;;;;;10.40;83.86;99540.00;4977903;28;103353;-60
2023/05/03 05:55:54;;;;;;;13.10;10.10;;;;;;;9.71;86.45;99548.31;4981768;28;103229;-60
2023/05/03 05:58:23;;;;;;;11.10;9.40;;;;;;;10.48;83.80;99545.69;4986222;28;103032;-65
2023/05/03 06:00:58;;;;;;;12.83;9.70;;;;;;;9.69;85.32;99551.97;4981287;28;102603;-65
2023/05/03 06:03:28;;;;;;;12.73;9.17;;;;;;;10.30;84.88;99546.78;4979879;28;104626;-65
2023/05/03 06:05:56;;;;;;;11.63;9.63;;;;;;;10.77;83.36;99536.91;4982238;28;103313;-65
2023/05/03 06:08:25;;;;;;;11.73;9.23;;;;;;;10.61;83.02;99541.38;4977727;28;102657;-65
2023/05/03 06:10:53;;;;;;;9.33;8.30;;;;;;;10.76;84.50;99543.13;4985486;28;102972;-65
2023/05/03 06:13:24;;;;;;;11.60;9.80;;;;;;;11.18;81.89;99536.16;4980352;28;103358;-66
2023/05/03 06:15:52;;;;;;;8.93;8.03;;;;;;;11.69;79.80;99537.34;4983357;28;103257;-65
2023/05/03 06:18:20;;;;;;;12.27;10.17;;;;;;;10.81;80.70;99537.53;4985378;28;102689;-65
2023/05/03 06:20:52;;;;;;;13.30;9.93;;;;;;;10.56;83.67;99542.59;4978359;28;103283;-65
2023/05/03 06:23:23;;;;;;;9.93;8.93;;;;;;;11.20;83.10;99539.59;4980896;28;103533;-65
2023/05/03 06:25:54;;;;;;;14.73;10.17;;;;;;;11.05;81.72;99541.38;4977005;28;103333;-65
2023/05/03 06:28:24;;;;;;;11.50;10.17;;;;;;;11.03;81.49;99553.84;4979489;28;103000;-65
2023/05/03 06:30:54;;;;;;;14.83;9.77;;;;;;;10.78;83.39;99553.63;4978033;28;102927;-65
2023/05/03 06:33:23;;;;;;;12.67;9.80;;;;;;;10.95;82.15;99541.06;4973548;28;103633;-65
2023/05/03 06:35:55;;;;;;;12.77;10.23;;;;;;;10.79;83.61;99548.22;4961190;28;103386;-66
2023/05/03 06:38:24;;;;;;;11.70;9.30;;;;;;;11.41;82.04;99543.53;4980031;28;102677;-65
2023/05/03 06:40:52;;;;;;;12.47;9.33;;;;;;;11.61;78.85;99546.63;4975784;28;102781;-66
2023/05/03 06:43:21;;;;;;;12.87;10.27;;;;;;;11.65;81.48;99547.25;4983858;28;103371;-65
2023/05/03 06:45:53;;;;;;;11.27;10.03;;;;;;;12.00;78.60;99537.97;4973534;28;103094;-65
2023/05/03 06:48:21;;;;;;;10.53;9.40;;;;;;;11.41;79.82;99546.16;4975953;28;102656;-65
2023/05/03 06:50:50;;;;;;;12.20;9.57;;;;;;;11.82;80.16;99539.13;4988906;28;102748;-63
2023/05/03 06:53:19;;;;;;;10.47;8.37;;;;;;;11.81;80.02;99542.75;4982683;28;104486;-63
2023/05/03 06:55:47;;;;;;;12.33;10.77;;;;;;;11.46;79.41;99546.72;4979047;28;103380;-63
2023/05/03 06:58:15;;;;;;;13.23;10.53;;;;;;;11.07;81.50;99545.63;4983915;28;102708;-64
2023/05/03 07:00:43;;;;;;;21.80;11.03;;;;;;;11.21;82.31;99542.13;4987106;28;103020;-64
2023/05/03 07:03:12;;;;;;;13.27;10.33;;;;;;;12.04;79.84;99534.16;4987864;28;103131;-63
2023/05/03 07:05:40;;;;;;;11.17;9.43;;;;;;;12.54;76.74;99535.28;4991125;28;103163;-63
2023/05/03 07:08:08;;;;;;;12.37;9.63;;;;;;;12.78;76.92;99526.50;4983668;28;102633;-64
2023/05/03 07:10:38;;;;;;;10.80;8.70;;;;;;;12.69;77.09;99520.97;4981755;28;102658;-66
2023/05/03 07:13:06;;;;;;;11.60;9.13;;;;;;;12.83;75.30;99518.22;4986312;28;103390;-66
2023/05/03 07:15:35;;;;;;;14.27;10.93;;;;;;;12.23;77.88;99517.06;4981627;28;103155;-66
2023/05/03 07:18:04;;;;;;;11.63;9.73;;;;;;;12.95;77.01;99514.72;4982258;28;102659;-65
2023/05/03 07:20:32;;;;;;;14.33;9.97;;;;;;;13.01;75.06;99509.00;4983346;28;102744;-66
2023/05/03 07:23:00;;;;;;;8.77;7.53;;;;;;;13.70;74.58;99510.28;4980371;28;103326;-65
2023/05/03 07:25:29;;;;;;;10.57;9.30;;;;;;;13.18;75.57;99516.69;4980418;28;104325;-66
2023/05/03 07:27:58;;;;;;;10.73;8.57;;;;;;;13.92;71.72;99503.31;4981820;28;102779;-66
2023/05/03 07:30:26;;;;;;;9.03;8.13;;;;;;;13.46;74.03;99506.75;4982455;28;103014;-67
2023/05/03 07:32:55;;;;;;;14.40;9.40;;;;;;;13.52;73.94;99507.19;4977321;28;104370;-66
2023/05/03 07:35:23;;;;;;;12.00;9.53;;;;;;;14.06;72.81;99501.47;4980610;28;104443;-66
2023/05/03 07:37:51;;;;;;;9.33;8.10;;;;;;;13.57;73.37;99501.53;4985517;28;103833;-66
2023/05/03 07:40:19;;;;;;;10.17;9.17;;;;;;;14.39;70.60;99502.50;4983498;28;102916;-65
2023/05/03 07:42:48;;;;;;;9.73;8.77;;;;;;;14.79;69.26;99507.44;4985752;28;105356;-66
2023/05/03 07:45:19;;;;;;;11.93;10.37;;;;;;;14.45;71.86;99504.69;4982110;28;103743;-65
2023/05/03 07:47:47;;;;;;;12.73;9.83;;;;;;;14.91;69.42;99501.16;4983470;28;104246;-66
2023/05/03 07:50:16;;;;;;;10.80;9.50;;;;;;;14.04;70.68;99498.03;4985057;28;102702;-66
2023/05/03 07:52:44;;;;;;;9.27;8.33;;;;;;;13.88;73.60;99499.19;4980826;28;111167;-66
2023/05/03 07:55:13;;;;;;;9.47;8.43;;;;;;;14.50;68.91;99485.72;4979128;28;103085;-66
2023/05/03 07:57:42;;;;;;;12.73;9.53;;;;;;;13.96;73.74;99488.00;4979039;28;102597;-65
2023/05/03 08:00:11;;;;;;;10.90;9.17;;;;;;;13.68;72.19;99493.63;4987203;28;102755;-65
2023/05/03 08:02:41;;;;;;;11.40;9.40;;;;;;;13.95;71.28;99494.25;4988299;28;103339;-65
2023/05/03 08:05:13;;;;;;;10.10;9.03;;;;;;;14.30;71.52;99495.16;4981169;28;103382;-65
2023/05/03 08:07:41;;;;;;;9.23;8.33;;;;;;;15.62;67.87;99493.69;4990211;28;102645;-66
2023/05/03 08:10:11;;;;;;;14.37;9.63;;;;;;;16.02;63.91;99485.13;4980909;28;102844;-65
2023/05/03 08:12:39;;;;;;;11.30;8.47;;;;;;;15.32;68.27;99488.13;4981545;28;102706;-66
2023/05/03 08:15:08;;;;;;;10.87;9.73;;;;;;;14.65;69.55;99489.03;4980659;28;103068;-66
2023/05/03 08:17:42;;;;;;;11.10;9.07;;;;;;;15.90;66.68;99489.63;4984489;28;102854;-65
2023/05/03 08:20:12;;;;;;;11.83;9.57;;;;;;;16.27;63.50;99489.28;4969647;28;102730;-66
2023/05/03 08:22:44;;;;;;;10.40;9.30;;;;;;;14.61;68.36;99488.41;4981457;28;103392;-65
2023/05/03 08:25:17;;;;;;;12.77;8.80;;;;;;;15.83;67.93;99480.44;4982837;28;103133;-66
2023/05/03 08:27:46;;;;;;;12.07;9.63;;;;;;;14.49;68.85;99479.53;4976890;28;102666;-66
2023/05/03 08:30:15;;;;;;;11.90;10.23;;;;;;;14.78;69.41;99492.44;4955182;28;102888;-66
2023/05/03 08:32:45;;;;;;;8.83;8.00;;;;;;;16.67;65.10;99483.13;4980779;28;102575;-66
2023/05/03 08:35:14;;;;;;;11.20;7.40;;;;;;;17.23;64.72;99485.44;4981663;28;103121;-66
2023/05/03 08:37:42;;;;;;;9.63;8.50;;;;;;;17.88;61.93;99477.78;4986410;28;102605;-65
2023/05/03 08:40:13;;;;;;;10.33;9.30;;;;;;;15.61;64.75;99484.00;4978496;28;102771;-65
2023/05/03 08:42:43;;;;;;;10.90;9.35;;;;;;;17.09;63.36;99483.13;4978014;28;103346;-66
2023/05/03 08:45:14;;;;;;;10.05;9.05;;;;;;;16.66;61.54;99491.28;4982366;28;104271;-66
2023/05/03 08:47:45;;;;;;;12.80;10.50;;;;;;;16.31;64.59;99490.72;4980484;28;102602;-66
2023/05/03 08:50:15;;;;;;;12.23;9.70;;;;;;;16.47;64.79;99491.13;4986352;28;102987;-66
2023/05/03 08:52:45;;;;;;;8.73;7.90;;;;;;;17.86;61.42;99474.41;4978420;28;103492;-66
2023/05/03 08:55:14;;;;;;;9.48;8.57;;;;;;;18.01;61.44;99482.03;4982660;28;106627;-66
2023/05/03 08:57:44;;;;;;;12.02;7.10;;;;;;;19.63;57.51;99480.91;4983590;28;102707;-66
2023/05/03 09:00:13;;;;;;;10.30;9.30;;;;;;;18.71;56.01;99484.44;4980496;28;102821;-66
2023/05/03 09:02:41;;;;;;;10.13;8.73;;;;;;;18.81;56.62;99483.44;4978752;28;103393;-66
2023/05/03 09:05:33;;;;;;;10.38;8.77;;;;;;;18.93;57.47;99484.97;4979963;28;102998;-66
2023/05/03 09:08:03;;;;;;;7.90;7.10;;;;;;;18.86;58.72;99491.88;4975089;28;102779;-66
2023/05/03 09:10:31;;;;;;;8.45;7.75;;;;;;;18.67;58.21;99497.25;4979196;28;102835;-66
2023/05/03 09:13:01;;;;;;;10.93;9.65;;;;;;;17.67;60.13;99498.41;4983036;28;103184;-66
2023/05/03 09:15:29;;;;;;;12.93;9.48;;;;;;;17.35;63.29;99506.56;4989541;28;105123;-66
2023/05/03 09:18:12;;;;;;;11.93;9.75;;;;;;;17.94;58.60;99495.94;4983285;28;102726;-66
2023/05/03 09:20:50;;;;;;;10.65;9.38;;;;;;;17.67;59.17;99497.56;4979294;28;102704;-66
2023/05/03 09:23:19;;;;;;;10.57;8.52;;;;;;;19.60;55.20;99492.78;4979345;28;103530;-66
2023/05/03 09:25:50;;;;;;;9.25;8.35;;;;;;;18.67;58.32;99486.56;4985126;28;104216;-66
2023/05/03 09:28:19;;;;;;;10.93;8.98;;;;;;;17.79;59.33;99483.97;4981620;28;102788;-66
2023/05/03 09:30:47;;;;;;;9.10;8.00;;;;;;;17.70;59.24;99487.47;4976811;28;102918;-66
2023/05/03 09:33:28;;;;;;;9.48;8.43;;;;;;;19.31;56.07;99477.81;4976979;28;103383;-66
2023/05/03 09:35:59;;;;;;;8.93;8.10;;;;;;;19.56;55.27;99474.47;4980030;28;103428;-66
2023/05/03 09:38:28;;;;;;;7.78;7.10;;;;;;;19.47;56.44;99478.03;4981528;28;102799;-66
2023/05/03 09:40:57;;;;;;;11.55;9.43;;;;;;;20.57;51.27;99471.50;4981573;28;102580;-65
2023/05/03 09:43:25;;;;;;;8.82;8.02;;;;;;;19.06;55.80;99472.09;4977834;28;107668;-65
2023/05/03 09:46:07;;;;;;;10.35;9.05;;;;;;;19.30;54.47;99476.97;4978588;28;104348;-66
2023/05/03 09:48:36;;;;;;;9.65;8.55;;;;;;;20.03;56.66;99481.38;4982513;28;102942;-66
2023/05/03 09:51:06;;;;;;;9.82;8.52;;;;;;;19.43;55.57;99471.28;4985196;28;102692;-66
2023/05/03 09:53:37;;;;;;;9.70;8.70;;;;;;;19.79;54.38;99475.72;4980725;28;103531;-66
2023/05/03 09:56:07;;;;;;;10.30;9.43;;;;;;;19.50;54.19;99473.25;4978248;28;104391;-66
2023/05/03 09:58:36;;;;;;;9.50;8.60;;;;;;;20.03;53.46;99467.97;4985120;28;102661;-66
2023/05/03 10:01:05;;;;;;;8.70;6.97;;;;;;;20.76;52.99;99468.63;4976169;28;102905;-66
2023/05/03 10:03:40;;;;;;;8.18;7.38;;;;;;;21.19;53.51;99465.09;4993896;28;104643;-66
2023/05/03 10:06:22;;;;;;;10.55;9.55;;;;;;;19.28;53.63;99464.69;4976035;28;104220;-66
2023/05/03 10:08:53;;;;;;;9.63;8.68;;;;;;;19.68;53.75;99462.53;4985240;28;102762;-67
2023/05/03 10:11:25;;;;;;;10.40;7.88;;;;;;;19.40;55.06;99458.16;4978545;28;103036;-66
2023/05/03 10:13:53;;;;;;;8.60;7.10;;;;;;;20.30;52.82;99452.81;4973173;28;103798;-66
2023/05/03 10:16:28;;;;;;;8.98;8.07;;;;;;;19.66;52.59;99456.50;4978124;28;104045;-66
2023/05/03 10:19:04;;;;;;;8.27;7.53;;;;;;;18.27;55.60;99456.44;4974598;28;102749;-67
2023/05/03 10:21:51;;;;;;;8.98;8.07;;;;;;;17.69;58.31;99461.72;4982005;28;103040;-67
2023/05/03 10:24:19;;;;;;;8.48;7.78;;;;;;;18.96;55.42;99449.88;4983804;28;103329;-66
2023/05/03 10:26:50;;;;;;;7.88;7.10;;;;;;;20.61;53.10;99451.41;4981952;28;102822;-67
2023/05/03 10:29:48;;;;;;;8.48;7.47;;;;;;;19.03;53.00;99448.28;4981632;28;102700;-67
2023/05/03 10:32:31;;;;;;;7.22;6.30;;;;;;;17.97;56.25;99452.03;4984253;28;102969;-66
2023/05/03 10:35:01;;;;;;;7.43;5.97;;;;;;;19.91;52.61;99437.00;4982637;28;108967;-66
2023/05/03 10:37:33;;;;;;;6.78;6.07;;;;;;;20.22;51.00;99440.13;4977628;28;107087;-67
2023/05/03 10:40:10;;;;;;;7.88;7.07;;;;;;;19.59;51.51;99439.34;4980751;28;102957;-66
2023/05/03 10:42:38;;;;;;;6.82;6.22;;;;;;;18.77;52.64;99438.38;4983423;28;102740;-67
2023/05/03 10:45:08;;;;;;;8.70;7.78;;;;;;;19.41;53.30;99436.59;4987985;28;103404;-66
2023/05/03 10:47:39;;;;;;;7.63;6.93;;;;;;;19.91;52.01;99433.47;4977744;28;103159;-67
2023/05/03 10:50:27;;;;;;;6.97;6.25;;;;;;;19.39;53.03;99429.72;4981669;28;102646;-66
2023/05/03 10:52:56;;;;;;;8.85;7.32;;;;;;;19.38;52.54;99422.63;4988041;28;102957;-66
2023/05/03 10:55:26;;;;;;;7.60;6.90;;;;;;;18.71;52.48;99423.75;4975590;28;103329;-66
2023/05/03 10:57:57;;;;;;;7.43;6.25;;;;;;;19.51;51.23;99423.97;4988229;28;105895;-66
2023/05/03 11:00:33;;;;;;;7.40;6.70;;;;;;;18.32;52.60;99427.44;4982136;28;102789;-66
2023/05/03 11:03:13;;;;;;;8.15;6.28;;;;;;;19.27;52.13;99430.84;4980123;28;102666;-67
2023/05/03 11:05:41;;;;;;;6.57;5.82;;;;;;;19.95;48.91;99426.81;4980328;28;109732;-66
2023/05/03 11:08:16;;;;;;;5.55;5.05;;;;;;;21.45;47.66;99419.31;4978774;28;108559;-67
2023/05/03 11:10:45;;;;;;;5.95;5.35;;;;;;;22.56;44.38;99408.09;4977833;28;102713;-66
2023/05/03 11:13:14;;;;;;;5.25;4.75;;;;;;;22.80;44.98;99414.31;4981268;28;102750;-67
2023/05/03 11:15:43;;;;;;;6.30;5.68;;;;;;;23.25;44.12;99397.50;4975822;28;104137;-67
2023/05/03 11:18:14;;;;;;;6.25;5.65;;;;;;;23.12;44.98;99393.69;4975825;28;103247;-67
2023/05/03 11:20:44;;;;;;;7.80;7.03;;;;;;;20.37;47.11;99397.53;4976205;28;102711;-66
2023/05/03 11:23:14;;;;;;;7.70;7.00;;;;;;;19.49;49.24;99392.97;4982537;28;102783;-67
2023/05/03 11:25:42;;;;;;;7.00;6.35;;;;;;;20.42;49.51;99381.81;4986118;28;103196;-67
2023/05/03 11:28:10;;;;;;;7.07;5.38;;;;;;;19.36;49.87;99392.47;4979900;28;104371;-67
2023/05/03 11:30:38;;;;;;;4.78;4.38;;;;;;;20.67;48.26;99386.34;4983301;28;102979;-67
2023/05/03 11:33:08;;;;;;;6.00;5.40;;;;;;;21.67;45.78;99378.44;4976270;28;102764;-67
2023/05/03 11:35:37;;;;;;;5.55;4.90;;;;;;;22.67;43.59;99375.47;4979462;28;106256;-67
2023/05/03 11:38:07;;;;;;;6.90;4.97;;;;;;;23.21;43.35;99379.19;4965044;28;103681;-67